Pagrindinis puslapis
METAR-TAF:

METAR-TAF

Oro uostai :

Viktorija, Mahė, Seišeliai

platuma: 04-40S, ilguma: 055-31E, Aukštis: 3 m

Dabartinis oras

Ataskaita buvo paskelbta 1 valandą ir 7 minutes, ne 13:00 UTC
Vėjas 5 kt iš Vakarų/Pietvakarių, svyruoja nuo Pietų/Pietvakarių ir Vakarų
Temperatūra 30°C
Drėgmė 70%
Slėgis 1009 hPa
Matomumas 10 km arba daugiau
Išsisklaidę debesys ne aukštis 2000 ft

METAR: FSIA 201300Z 25005KT 200V280 9999 SCT020 30/24 Q1009 NOSIG

Laikas: 18:07 (14:07 UTC)

Prognozė

Ataskaita buvo paskelbta 3 valandos ir 5 minutes, ne 11:02 UTC
Prognozė galioja nuo 20 metu 12 UTC su 21 metu 12 UTC
Vėjas 5 kt nuo kintamojo kryptimis
Matomumas 10 km arba daugiau
Išsisklaidę debesys ne aukštis 2200 ft
Laikinai
nuo 20 metu 22 UTC su 21 metu 02 UTC
Mažai debesys ne aukštis 1400 ft, Liūtiniai kamuoliniai debesys.
Su prošvaistėmis ne aukštis 1800 ft
lietus

TAF: FSIA 201102Z 2012/2112 VRB05KT 9999 SCT022 TEMPO 2022/2102 -SHRA FEW014CB BKN018

Orai ataskaitas ir orų prognozės (METAR, TAF).

turimą stotys yra geltonos ir raudonos taškus žemėlapyje.

Perkelti pele per norėdami pamatyti stoties vardą.

Tada spustelėkite, norėdami matyti oro stebėjimo ir prognozės.

Norėdami pakeisti žemėlapį: spustelėkite ant žalios mygtukų su juodo kryžiaus žemyn,; žalią mygtuką su brūkšneliu, jei norite nutolinti; arba žalių rodyklių gretimoms žemėlapius.


METAR-TAF: